< < Back
Terminal Aerodrome Forecast


Current Version              Previous Versions:   1  2  3  4  5  6  7  8  9  

Terminal Aerodrome Forecast

564
FTUS44 KHUN 281732
TAFHSV
TAF
KHSV 281732Z 2818/2918 27007KT P6SM VCTS SCT035CB BKN050
     FM290200 VRB03KT P6SM SCT070 SCT150
     FM291500 32005KT P6SM FEW070 BKN150=



Latest METAR

275
SAUS80 KWBC 290000 RRA
MTRHSV
METAR KHSV 282353Z 11007KT 10SM -RA SCT043 SCT050 BKN110 BKN250 28/23
A2997 RMK AO2 PK WND 02026/2329 WSHFT 2330 RAB27 SLP140 P0037
60037 T02830233 10378 20278 51002


USA.gov is the U.S. government's official web portal to all federal, state and local government web resources and services.